< < Back
Terminal Aerodrome Forecast


Current Version              Previous Versions:   1  2  3  4  5  6  7  8  9  

Terminal Aerodrome Forecast

680
FTUS42 KFFC 290542
TAFFTY
TAF
KFTY 290542Z 2906/3006 09003KT P6SM FEW140 SCT250
     FM291000 05003KT P6SM FEW060 SCT250
     FM291400 35005KT P6SM FEW040 SCT120
     FM291800 35006KT P6SM SCT060 SCT120
     FM292300 35005KT P6SM FEW080
     FM300300 00000KT P6SM SKC=

Latest METAR

807
SAUS70 KWBC 300100 RRK
MTRFTY
METAR KFTY 300053Z 00000KT 10SM CLR 26/17 A3002 RMK AO2 SLP159
T02610167


USA.gov is the U.S. government's official web portal to all federal, state and local government web resources and services.